createdAt,value
2018-05-12T00:00:06.244Z,1010.85
2018-05-12T00:00:32.389Z,1010.84
2018-05-12T00:00:58.569Z,1010.86
2018-05-12T00:01:24.707Z,1010.86
2018-05-12T00:01:50.851Z,1010.87
2018-05-12T00:02:16.993Z,1010.83
2018-05-12T00:02:43.130Z,1010.85
2018-05-12T00:03:09.274Z,1010.84
2018-05-12T00:03:35.431Z,1010.82
2018-05-12T00:04:01.577Z,1010.81
2018-05-12T00:04:27.824Z,1010.8
2018-05-12T00:04:54.181Z,1010.83
2018-05-12T00:05:20.446Z,1010.81
2018-05-12T00:05:46.728Z,1010.8
2018-05-12T00:06:12.816Z,1010.79
2018-05-12T00:06:38.952Z,1010.8
2018-05-12T00:07:05.113Z,1010.81
2018-05-12T00:07:31.278Z,1010.82
2018-05-12T00:07:57.588Z,1010.84
2018-05-12T00:08:23.706Z,1010.78
2018-05-12T00:08:49.840Z,1010.77
2018-05-12T00:09:15.987Z,1010.8
2018-05-12T00:09:42.130Z,1010.77
2018-05-12T00:10:08.275Z,1010.77
2018-05-12T00:10:34.417Z,1010.81
2018-05-12T00:11:00.548Z,1010.75
2018-05-12T00:11:26.718Z,1010.77
2018-05-12T00:11:52.843Z,1010.76
2018-05-12T00:12:19.003Z,1010.78
2018-05-12T00:12:45.200Z,1010.78
2018-05-12T00:13:11.352Z,1010.75
2018-05-12T00:13:37.509Z,1010.79
2018-05-12T00:14:03.837Z,1010.78
2018-05-12T00:14:29.940Z,1010.74
2018-05-12T00:14:56.091Z,1010.72
2018-05-12T00:15:22.243Z,1010.73
2018-05-12T00:15:48.915Z,1010.73
2018-05-12T00:16:15.053Z,1010.74
2018-05-12T00:16:41.188Z,1010.73
2018-05-12T00:17:07.330Z,1010.72
2018-05-12T00:17:33.464Z,1010.74
2018-05-12T00:17:59.652Z,1010.68
2018-05-12T00:18:25.788Z,1010.74
2018-05-12T00:18:51.923Z,1010.71
2018-05-12T00:19:18.070Z,1010.69
2018-05-12T00:19:44.222Z,1010.69
2018-05-12T00:20:10.382Z,1010.72
2018-05-12T00:20:36.517Z,1010.7
2018-05-12T00:21:02.655Z,1010.69
2018-05-12T00:21:28.800Z,1010.68
2018-05-12T00:21:54.937Z,1010.68
2018-05-12T00:22:21.080Z,1010.66
2018-05-12T00:22:47.218Z,1010.63
2018-05-12T00:23:13.359Z,1010.68
2018-05-12T00:23:39.527Z,1010.65
2018-05-12T00:24:05.659Z,1010.66
2018-05-12T00:24:31.802Z,1010.65
2018-05-12T00:24:57.938Z,1010.65
2018-05-12T00:25:24.086Z,1010.63
2018-05-12T00:25:50.227Z,1010.67
2018-05-12T00:26:16.389Z,1010.64
2018-05-12T00:26:42.527Z,1010.65
2018-05-12T00:27:08.663Z,1010.62
2018-05-12T00:27:34.804Z,1010.68
2018-05-12T00:28:00.942Z,1010.67
2018-05-12T00:28:27.080Z,1010.69
2018-05-12T00:28:53.217Z,1010.65
2018-05-12T00:29:19.356Z,1010.66
2018-05-12T00:29:45.517Z,1010.66
2018-05-12T00:30:11.647Z,1010.63
2018-05-12T00:30:37.790Z,1010.63
2018-05-12T00:31:03.949Z,1010.66
2018-05-12T00:31:30.083Z,1010.64
2018-05-12T00:31:56.223Z,1010.62
2018-05-12T00:32:22.387Z,1010.62
2018-05-12T00:32:48.529Z,1010.61
2018-05-12T00:33:14.666Z,1010.6
2018-05-12T00:33:40.796Z,1010.58
2018-05-12T00:34:06.989Z,1010.59
2018-05-12T00:34:33.130Z,1010.62
2018-05-12T00:34:59.262Z,1010.59
2018-05-12T00:35:25.428Z,1010.58
2018-05-12T00:35:51.571Z,1010.59
2018-05-12T00:36:17.707Z,1010.59
2018-05-12T00:36:43.843Z,1010.6
2018-05-12T00:37:10.012Z,1010.61
2018-05-12T00:37:36.154Z,1010.56
2018-05-12T00:38:02.332Z,1010.57
2018-05-12T00:38:28.478Z,1010.56
2018-05-12T00:38:56.071Z,1010.56
2018-05-12T00:39:22.216Z,1010.54
2018-05-12T00:39:48.355Z,1010.57
2018-05-12T00:40:14.492Z,1010.54
2018-05-12T00:40:40.657Z,1010.52
2018-05-12T00:41:06.793Z,1010.52
2018-05-12T00:41:32.929Z,1010.51
2018-05-12T00:41:59.092Z,1010.5
2018-05-12T00:42:25.238Z,1010.51
2018-05-12T00:42:51.466Z,1010.48
2018-05-12T00:43:17.534Z,1010.54
2018-05-12T00:43:43.668Z,1010.51
2018-05-12T00:44:09.803Z,1010.51
2018-05-12T00:44:35.973Z,1010.53
2018-05-12T00:45:02.147Z,1010.52
2018-05-12T00:45:28.280Z,1010.54
2018-05-12T00:45:54.419Z,1010.56
2018-05-12T00:46:20.559Z,1010.52
2018-05-12T00:46:46.691Z,1010.5
2018-05-12T00:47:12.860Z,1010.53
2018-05-12T00:47:39.017Z,1010.52
2018-05-12T00:48:05.187Z,1010.55
2018-05-12T00:48:31.319Z,1010.53
2018-05-12T00:48:57.468Z,1010.55
2018-05-12T00:49:23.628Z,1010.52
2018-05-12T00:49:49.791Z,1010.53
2018-05-12T00:50:15.928Z,1010.52
2018-05-12T00:50:42.111Z,1010.52
2018-05-12T00:51:08.258Z,1010.54
2018-05-12T00:51:34.395Z,1010.54
2018-05-12T00:52:00.530Z,1010.49
2018-05-12T00:52:26.695Z,1010.49
2018-05-12T00:52:52.836Z,1010.54
2018-05-12T00:53:18.972Z,1010.52
2018-05-12T00:53:45.109Z,1010.54
2018-05-12T00:54:11.302Z,1010.49
2018-05-12T00:54:37.465Z,1010.49
2018-05-12T00:55:03.595Z,1010.51
2018-05-12T00:55:29.760Z,1010.51
2018-05-12T00:55:55.890Z,1010.5
2018-05-12T00:56:22.035Z,1010.5
2018-05-12T00:56:48.168Z,1010.49
2018-05-12T00:57:14.313Z,1010.53
2018-05-12T00:57:40.480Z,1010.47
2018-05-12T00:58:06.613Z,1010.45
2018-05-12T00:58:32.754Z,1010.47
2018-05-12T00:58:58.898Z,1010.51
2018-05-12T00:59:25.036Z,1010.44
2018-05-12T00:59:51.171Z,1010.44
2018-05-12T01:00:17.339Z,1010.45
2018-05-12T01:00:43.507Z,1010.45
2018-05-12T01:01:09.649Z,1010.41
2018-05-12T01:01:35.800Z,1010.45
2018-05-12T01:02:01.935Z,1010.44
2018-05-12T01:02:28.069Z,1010.48
2018-05-12T01:02:54.218Z,1010.44
2018-05-12T01:03:20.350Z,1010.45
2018-05-12T01:03:46.517Z,1010.46
2018-05-12T01:04:12.682Z,1010.44
2018-05-12T01:04:38.844Z,1010.41
2018-05-12T01:05:04.985Z,1010.45
2018-05-12T01:05:31.127Z,1010.39
2018-05-12T01:05:57.291Z,1010.41
2018-05-12T01:06:23.424Z,1010.39
2018-05-12T01:06:49.568Z,1010.45
2018-05-12T01:07:15.710Z,1010.43
2018-05-12T01:07:41.848Z,1010.42
2018-05-12T01:08:07.983Z,1010.41
2018-05-12T01:08:34.124Z,1010.43
2018-05-12T01:09:00.259Z,1010.38
2018-05-12T01:09:26.420Z,1010.37
2018-05-12T01:09:52.561Z,1010.39
2018-05-12T01:10:18.700Z,1010.4
2018-05-12T01:10:44.840Z,1010.41
2018-05-12T01:11:10.983Z,1010.39
2018-05-12T01:11:37.114Z,1010.42
2018-05-12T01:12:03.245Z,1010.36
2018-05-12T01:12:29.388Z,1010.37
2018-05-12T01:12:55.536Z,1010.39
2018-05-12T01:13:21.673Z,1010.39
2018-05-12T01:13:47.863Z,1010.39
2018-05-12T01:14:14.021Z,1010.4
2018-05-12T01:14:40.183Z,1010.38
2018-05-12T01:15:06.323Z,1010.37
2018-05-12T01:15:32.460Z,1010.39
2018-05-12T01:15:58.608Z,1010.37
2018-05-12T01:16:24.769Z,1010.36
2018-05-12T01:16:50.917Z,1010.36
2018-05-12T01:17:17.100Z,1010.35
2018-05-12T01:17:43.238Z,1010.34
2018-05-12T01:18:09.380Z,1010.32
2018-05-12T01:18:35.513Z,1010.36
2018-05-12T01:19:01.679Z,1010.33
2018-05-12T01:19:27.814Z,1010.35
2018-05-12T01:19:53.970Z,1010.34
2018-05-12T01:20:20.118Z,1010.32
2018-05-12T01:20:46.279Z,1010.33
2018-05-12T01:21:12.425Z,1010.31
2018-05-12T01:21:38.562Z,1010.33
2018-05-12T01:22:04.717Z,1010.33
2018-05-12T01:22:30.861Z,1010.3
2018-05-12T01:22:57.026Z,1010.31
2018-05-12T01:23:23.169Z,1010.33
2018-05-12T01:23:49.303Z,1010.29
2018-05-12T01:24:15.435Z,1010.28
2018-05-12T01:24:41.581Z,1010.28
2018-05-12T01:25:07.724Z,1010.29
2018-05-12T01:25:33.848Z,1010.31
2018-05-12T01:25:59.987Z,1010.28
2018-05-12T01:26:26.121Z,1010.28
2018-05-12T01:26:52.258Z,1010.3
2018-05-12T01:27:18.398Z,1010.27
2018-05-12T01:27:44.533Z,1010.28
2018-05-12T01:28:10.677Z,1010.3
2018-05-12T01:28:36.815Z,1010.27
2018-05-12T01:29:02.950Z,1010.28
2018-05-12T01:29:29.090Z,1010.33
2018-05-12T01:29:55.234Z,1010.29
2018-05-12T01:30:21.378Z,1010.29
2018-05-12T01:30:47.539Z,1010.28
2018-05-12T01:31:13.741Z,1010.28
2018-05-12T01:31:39.880Z,1010.28
2018-05-12T01:32:06.040Z,1010.27
2018-05-12T01:32:32.200Z,1010.26
2018-05-12T01:32:58.369Z,1010.26
2018-05-12T01:33:24.507Z,1010.26
2018-05-12T01:33:50.674Z,1010.28
2018-05-12T01:34:16.836Z,1010.26
2018-05-12T01:34:42.993Z,1010.28
2018-05-12T01:35:09.145Z,1010.24
2018-05-12T01:35:35.305Z,1010.28
2018-05-12T01:36:01.468Z,1010.24
2018-05-12T01:36:27.609Z,1010.22
2018-05-12T01:36:53.752Z,1010.22
2018-05-12T01:37:19.890Z,1010.26
2018-05-12T01:37:46.029Z,1010.24
2018-05-12T01:38:12.194Z,1010.23
2018-05-12T01:38:38.328Z,1010.25
2018-05-12T01:39:04.464Z,1010.28
2018-05-12T01:39:30.611Z,1010.25
2018-05-12T01:39:56.752Z,1010.25
2018-05-12T01:40:22.889Z,1010.25
2018-05-12T01:40:49.019Z,1010.25
2018-05-12T01:41:15.181Z,1010.19
2018-05-12T01:41:41.321Z,1010.23
2018-05-12T01:42:07.460Z,1010.24
2018-05-12T01:42:33.590Z,1010.22
2018-05-12T01:42:59.728Z,1010.24
2018-05-12T01:43:25.874Z,1010.22
2018-05-12T01:43:52.012Z,1010.23
2018-05-12T01:44:18.153Z,1010.22
2018-05-12T01:44:44.315Z,1010.18
2018-05-12T01:45:10.458Z,1010.2
2018-05-12T01:45:36.592Z,1010.22
2018-05-12T01:46:02.733Z,1010.2
2018-05-12T01:46:28.873Z,1010.19
2018-05-12T01:46:55.037Z,1010.21
2018-05-12T01:47:21.171Z,1010.21
2018-05-12T01:47:47.306Z,1010.2
2018-05-12T01:48:13.448Z,1010.22
2018-05-12T01:48:39.583Z,1010.22
2018-05-12T01:49:05.727Z,1010.23
2018-05-12T01:49:31.865Z,1010.21
2018-05-12T01:49:58.047Z,1010.22
2018-05-12T01:50:24.188Z,1010.25
2018-05-12T01:50:50.328Z,1010.23
2018-05-12T01:51:16.472Z,1010.24
2018-05-12T01:51:42.602Z,1010.23
2018-05-12T01:52:08.770Z,1010.26
2018-05-12T01:52:34.908Z,1010.25
2018-05-12T01:53:01.041Z,1010.24
2018-05-12T01:53:27.183Z,1010.3
2018-05-12T01:53:53.321Z,1010.3
2018-05-12T01:54:19.456Z,1010.31
2018-05-12T01:54:45.604Z,1010.31
2018-05-12T01:55:11.733Z,1010.32
2018-05-12T01:55:37.879Z,1010.31
2018-05-12T01:56:04.024Z,1010.31
2018-05-12T01:56:30.164Z,1010.29
2018-05-12T01:56:56.302Z,1010.31
2018-05-12T01:57:22.466Z,1010.32
2018-05-12T01:57:48.625Z,1010.32
2018-05-12T01:58:14.790Z,1010.32
2018-05-12T01:58:40.934Z,1010.34
2018-05-12T01:59:07.087Z,1010.34
2018-05-12T01:59:33.234Z,1010.32
2018-05-12T01:59:59.370Z,1010.33
2018-05-12T02:00:25.511Z,1010.31
2018-05-12T02:00:51.651Z,1010.29
2018-05-12T02:01:17.797Z,1010.33
2018-05-12T02:01:43.935Z,1010.29
2018-05-12T02:02:10.078Z,1010.31
2018-05-12T02:02:36.242Z,1010.29
2018-05-12T02:03:02.380Z,1010.26
2018-05-12T02:03:28.520Z,1010.28
2018-05-12T02:03:54.661Z,1010.28
2018-05-12T02:04:20.827Z,1010.27
2018-05-12T02:04:46.985Z,1010.27
2018-05-12T02:05:13.122Z,1010.26
2018-05-12T02:05:39.340Z,1010.25
2018-05-12T02:06:05.425Z,1010.25
2018-05-12T02:06:31.569Z,1010.27
2018-05-12T02:06:57.730Z,1010.24
2018-05-12T02:07:23.862Z,1010.26
2018-05-12T02:07:49.999Z,1010.27
2018-05-12T02:08:16.158Z,1010.29
2018-05-12T02:08:42.300Z,1010.27
2018-05-12T02:09:08.433Z,1010.29
2018-05-12T02:09:34.568Z,1010.31
2018-05-12T02:10:00.712Z,1010.3
2018-05-12T02:10:26.874Z,1010.29
2018-05-12T02:10:53.007Z,1010.31
2018-05-12T02:11:19.153Z,1010.32
2018-05-12T02:11:45.284Z,1010.32
2018-05-12T02:12:11.427Z,1010.32
2018-05-12T02:12:37.573Z,1010.29
2018-05-12T02:13:03.714Z,1010.31
2018-05-12T02:13:29.851Z,1010.32
2018-05-12T02:13:55.987Z,1010.3
2018-05-12T02:14:22.124Z,1010.29
2018-05-12T02:14:48.257Z,1010.3
2018-05-12T02:15:14.399Z,1010.31
2018-05-12T02:15:40.534Z,1010.31
2018-05-12T02:16:06.668Z,1010.34
2018-05-12T02:16:32.813Z,1010.35
2018-05-12T02:16:58.949Z,1010.37
2018-05-12T02:17:25.095Z,1010.32
2018-05-12T02:17:51.233Z,1010.34
2018-05-12T02:18:17.375Z,1010.33
2018-05-12T02:18:43.515Z,1010.35
2018-05-12T02:19:09.652Z,1010.33
2018-05-12T02:19:35.796Z,1010.37
2018-05-12T02:20:01.932Z,1010.38
2018-05-12T02:20:28.077Z,1010.37
2018-05-12T02:20:54.215Z,1010.37
2018-05-12T02:21:20.351Z,1010.38
2018-05-12T02:21:46.499Z,1010.39
2018-05-12T02:22:12.635Z,1010.35
2018-05-12T02:22:38.781Z,1010.37
2018-05-12T02:23:04.918Z,1010.37
2018-05-12T02:23:31.055Z,1010.37
2018-05-12T02:23:57.196Z,1010.39
2018-05-12T02:24:23.365Z,1010.36
2018-05-12T02:24:49.521Z,1010.39
2018-05-12T02:25:15.664Z,1010.4
2018-05-12T02:25:41.803Z,1010.38
2018-05-12T02:26:07.969Z,1010.37
2018-05-12T02:26:34.109Z,1010.37
2018-05-12T02:27:00.243Z,1010.41
2018-05-12T02:27:26.384Z,1010.37
2018-05-12T02:27:52.548Z,1010.34
2018-05-12T02:28:18.688Z,1010.38
2018-05-12T02:28:44.827Z,1010.38
2018-05-12T02:29:10.987Z,1010.37
2018-05-12T02:29:37.124Z,1010.37
2018-05-12T02:30:03.267Z,1010.36
2018-05-12T02:30:29.463Z,1010.37
2018-05-12T02:30:55.566Z,1010.35
2018-05-12T02:31:21.731Z,1010.34
2018-05-12T02:31:47.890Z,1010.33
2018-05-12T02:32:14.061Z,1010.32
2018-05-12T02:32:40.268Z,1010.32
2018-05-12T02:33:06.410Z,1010.33
2018-05-12T02:33:32.553Z,1010.34
2018-05-12T02:33:58.715Z,1010.3
2018-05-12T02:34:24.853Z,1010.28
2018-05-12T02:34:51.022Z,1010.28
2018-05-12T02:35:17.180Z,1010.28
2018-05-12T02:35:43.317Z,1010.28
2018-05-12T02:36:09.515Z,1010.29
2018-05-12T02:36:35.657Z,1010.31
2018-05-12T02:37:01.792Z,1010.29
2018-05-12T02:37:27.944Z,1010.25
2018-05-12T02:37:54.090Z,1010.3
2018-05-12T02:38:20.295Z,1010.28
2018-05-12T02:38:46.436Z,1010.3
2018-05-12T02:39:12.572Z,1010.28
2018-05-12T02:39:38.716Z,1010.29
2018-05-12T02:40:04.903Z,1010.27
2018-05-12T02:40:31.051Z,1010.32
2018-05-12T02:40:57.205Z,1010.3
2018-05-12T02:41:23.354Z,1010.28
2018-05-12T02:41:49.493Z,1010.28
2018-05-12T02:42:15.651Z,1010.32
2018-05-12T02:42:41.797Z,1010.3
2018-05-12T02:43:07.952Z,1010.29
2018-05-12T02:43:34.141Z,1010.26
2018-05-12T02:44:00.356Z,1010.29
2018-05-12T02:44:26.514Z,1010.3
2018-05-12T02:44:52.658Z,1010.27
2018-05-12T02:45:18.842Z,1010.28
2018-05-12T02:45:45.005Z,1010.28
2018-05-12T02:46:11.198Z,1010.27
2018-05-12T02:46:37.356Z,1010.28
2018-05-12T02:47:03.495Z,1010.27
2018-05-12T02:47:29.655Z,1010.25
2018-05-12T02:47:55.824Z,1010.25
2018-05-12T02:48:22.005Z,1010.26
2018-05-12T02:48:48.173Z,1010.26
2018-05-12T02:49:14.336Z,1010.3
2018-05-12T02:49:40.475Z,1010.29
2018-05-12T02:50:06.611Z,1010.25
2018-05-12T02:50:32.772Z,1010.24
2018-05-12T02:50:58.907Z,1010.24
2018-05-12T02:51:25.074Z,1010.26
2018-05-12T02:51:51.217Z,1010.23
2018-05-12T02:52:17.373Z,1010.24
2018-05-12T02:52:43.594Z,1010.25
2018-05-12T02:53:09.728Z,1010.25
2018-05-12T02:53:35.876Z,1010.23
2018-05-12T02:54:02.087Z,1010.19
2018-05-12T02:54:28.243Z,1010.2
2018-05-12T02:54:54.395Z,1010.22
2018-05-12T02:55:20.530Z,1010.22
2018-05-12T02:55:46.688Z,1010.19
2018-05-12T02:56:12.855Z,1010.18
2018-05-12T02:56:39.039Z,1010.21
2018-05-12T02:57:05.216Z,1010.21
2018-05-12T02:57:31.387Z,1010.18
2018-05-12T02:57:57.580Z,1010.18
2018-05-12T02:58:23.739Z,1010.15
2018-05-12T02:58:49.880Z,1010.17
2018-05-12T02:59:16.068Z,1010.19
2018-05-12T02:59:42.259Z,1010.15
2018-05-12T03:00:08.423Z,1010.19
2018-05-12T03:00:34.584Z,1010.18
2018-05-12T03:01:00.717Z,1010.21
2018-05-12T03:01:26.888Z,1010.2
2018-05-12T03:01:53.026Z,1010.19
2018-05-12T03:02:19.191Z,1010.19
2018-05-12T03:02:45.351Z,1010.21
2018-05-12T03:03:11.502Z,1010.18
2018-05-12T03:03:37.664Z,1010.2
2018-05-12T03:04:03.841Z,1010.19
2018-05-12T03:04:30.001Z,1010.15
2018-05-12T03:04:56.170Z,1010.17
2018-05-12T03:05:22.329Z,1010.18
2018-05-12T03:05:48.475Z,1010.16
2018-05-12T03:06:14.680Z,1010.18
2018-05-12T03:06:40.968Z,1010.15
2018-05-12T03:07:07.300Z,1010.2
2018-05-12T03:07:33.546Z,1010.15
2018-05-12T03:07:59.866Z,1010.17
2018-05-12T03:08:26.196Z,1010.17
2018-05-12T03:08:52.433Z,1010.18
2018-05-12T03:09:18.637Z,1010.14
2018-05-12T03:09:44.917Z,1010.16
2018-05-12T03:10:11.310Z,1010.16
2018-05-12T03:10:37.633Z,1010.15
2018-05-12T03:11:03.972Z,1010.13
2018-05-12T03:11:30.248Z,1010.14
2018-05-12T03:11:56.428Z,1010.16
2018-05-12T03:12:22.624Z,1010.16
2018-05-12T03:12:48.771Z,1010.13
2018-05-12T03:13:14.927Z,1010.16
2018-05-12T03:13:41.067Z,1010.15
2018-05-12T03:14:07.228Z,1010.16
2018-05-12T03:14:33.369Z,1010.16
2018-05-12T03:14:59.521Z,1010.17
2018-05-12T03:15:25.696Z,1010.19
2018-05-12T03:15:51.847Z,1010.17
2018-05-12T03:16:18.009Z,1010.17
2018-05-12T03:16:44.169Z,1010.18
2018-05-12T03:17:10.308Z,1010.19
2018-05-12T03:17:36.474Z,1010.21
2018-05-12T03:18:02.612Z,1010.18
2018-05-12T03:18:28.749Z,1010.13
2018-05-12T03:18:54.934Z,1010.19
2018-05-12T03:19:21.069Z,1010.16
2018-05-12T03:19:47.215Z,1010.17
2018-05-12T03:20:13.355Z,1010.17
2018-05-12T03:20:39.514Z,1010.15
2018-05-12T03:21:05.645Z,1010.15
2018-05-12T03:21:31.782Z,1010.16
2018-05-12T03:21:57.921Z,1010.14
2018-05-12T03:22:24.059Z,1010.11
2018-05-12T03:22:50.198Z,1010.15
2018-05-12T03:23:16.336Z,1010.12
2018-05-12T03:23:42.472Z,1010.16
2018-05-12T03:24:08.615Z,1010.17
2018-05-12T03:24:34.751Z,1010.15
2018-05-12T03:25:00.892Z,1010.16
2018-05-12T03:25:27.020Z,1010.17
2018-05-12T03:25:53.159Z,1010.14
2018-05-12T03:26:19.316Z,1010.14
2018-05-12T03:26:45.503Z,1010.17
2018-05-12T03:27:11.665Z,1010.19
2018-05-12T03:27:37.805Z,1010.18
2018-05-12T03:28:03.950Z,1010.14
2018-05-12T03:28:30.090Z,1010.17
2018-05-12T03:28:56.255Z,1010.15
2018-05-12T03:29:22.388Z,1010.16
2018-05-12T03:29:48.584Z,1010.15
2018-05-12T03:30:14.727Z,1010.13
2018-05-12T03:30:40.874Z,1010.15
2018-05-12T03:31:07.009Z,1010.15
2018-05-12T03:31:33.196Z,1010.1
2018-05-12T03:31:59.357Z,1010.17
2018-05-12T03:32:25.488Z,1010.16
2018-05-12T03:32:51.629Z,1010.14
2018-05-12T03:33:17.770Z,1010.15
2018-05-12T03:33:43.909Z,1010.14
2018-05-12T03:34:10.081Z,1010.16
2018-05-12T03:34:36.242Z,1010.16
2018-05-12T03:35:02.374Z,1010.16
2018-05-12T03:35:28.519Z,1010.16
2018-05-12T03:35:54.676Z,1010.15
2018-05-12T03:36:20.821Z,1010.15
2018-05-12T03:36:46.982Z,1010.2
2018-05-12T03:37:13.127Z,1010.16
2018-05-12T03:37:39.268Z,1010.17
2018-05-12T03:38:05.429Z,1010.16
2018-05-12T03:38:31.615Z,1010.18
2018-05-12T03:38:57.764Z,1010.15
2018-05-12T03:39:23.942Z,1010.18
2018-05-12T03:39:50.081Z,1010.15
2018-05-12T03:40:16.237Z,1010.12
2018-05-12T03:40:42.382Z,1010.14
2018-05-12T03:41:08.539Z,1010.17
2018-05-12T03:41:34.679Z,1010.15
2018-05-12T03:42:00.852Z,1010.16
2018-05-12T03:42:27.013Z,1010.19
2018-05-12T03:42:53.153Z,1010.17
2018-05-12T03:43:19.293Z,1010.16
2018-05-12T03:43:45.432Z,1010.19
2018-05-12T03:44:11.569Z,1010.18
2018-05-12T03:44:37.710Z,1010.18
2018-05-12T03:45:03.845Z,1010.2
2018-05-12T03:45:29.985Z,1010.17
2018-05-12T03:45:56.122Z,1010.17
2018-05-12T03:46:22.254Z,1010.14
2018-05-12T03:46:48.395Z,1010.17
2018-05-12T03:47:14.562Z,1010.15
2018-05-12T03:47:40.719Z,1010.16
2018-05-12T03:48:06.851Z,1010.15
2018-05-12T03:48:32.990Z,1010.15
2018-05-12T03:48:59.131Z,1010.14
2018-05-12T03:49:25.270Z,1010.15
2018-05-12T03:49:51.415Z,1010.16
2018-05-12T03:50:17.548Z,1010.16
2018-05-12T03:50:43.688Z,1010.2
2018-05-12T03:51:09.834Z,1010.16
2018-05-12T03:51:35.989Z,1010.2
2018-05-12T03:52:02.212Z,1010.16
2018-05-12T03:52:28.272Z,1010.21
2018-05-12T03:52:54.411Z,1010.16
2018-05-12T03:53:20.548Z,1010.18
2018-05-12T03:53:46.688Z,1010.19
2018-05-12T03:54:12.824Z,1010.2
2018-05-12T03:54:38.991Z,1010.21
2018-05-12T03:55:05.135Z,1010.17
2018-05-12T03:55:31.270Z,1010.24
2018-05-12T03:55:57.413Z,1010.2
2018-05-12T03:56:23.556Z,1010.21
2018-05-12T03:56:49.693Z,1010.22
2018-05-12T03:57:15.834Z,1010.25
2018-05-12T03:57:41.970Z,1010.2
2018-05-12T03:58:08.112Z,1010.25
2018-05-12T03:58:34.272Z,1010.25
2018-05-12T03:59:00.409Z,1010.26
2018-05-12T03:59:26.554Z,1010.27
2018-05-12T03:59:52.757Z,1010.29
2018-05-12T04:00:18.824Z,1010.27
2018-05-12T04:00:44.962Z,1010.32
2018-05-12T04:01:11.107Z,1010.3
2018-05-12T04:01:37.270Z,1010.32
2018-05-12T04:02:03.399Z,1010.28
2018-05-12T04:02:29.566Z,1010.28
2018-05-12T04:02:55.703Z,1010.3
2018-05-12T04:03:21.839Z,1010.3
2018-05-12T04:03:48.009Z,1010.31
2018-05-12T04:04:14.147Z,1010.31
2018-05-12T04:04:40.317Z,1010.29
2018-05-12T04:05:06.476Z,1010.3
2018-05-12T04:05:32.616Z,1010.36
2018-05-12T04:05:58.756Z,1010.33
2018-05-12T04:06:24.915Z,1010.3
2018-05-12T04:06:51.056Z,1010.34
2018-05-12T04:07:17.206Z,1010.31
2018-05-12T04:07:43.367Z,1010.31
2018-05-12T04:08:09.506Z,1010.35
2018-05-12T04:08:35.646Z,1010.35
2018-05-12T04:09:01.783Z,1010.33
2018-05-12T04:09:27.915Z,1010.34
2018-05-12T04:09:54.055Z,1010.34
2018-05-12T04:10:20.195Z,1010.32
2018-05-12T04:10:46.335Z,1010.35
2018-05-12T04:11:12.469Z,1010.33
2018-05-12T04:11:38.608Z,1010.36
2018-05-12T04:12:04.743Z,1010.32
2018-05-12T04:12:30.885Z,1010.39
2018-05-12T04:12:57.024Z,1010.37
2018-05-12T04:13:23.192Z,1010.36
2018-05-12T04:13:49.328Z,1010.37
2018-05-12T04:14:15.466Z,1010.36
2018-05-12T04:14:41.614Z,1010.39
2018-05-12T04:15:07.756Z,1010.37
2018-05-12T04:15:33.897Z,1010.34
2018-05-12T04:16:00.058Z,1010.36
2018-05-12T04:16:26.217Z,1010.33
2018-05-12T04:16:52.367Z,1010.35
2018-05-12T04:17:18.493Z,1010.38
2018-05-12T04:17:44.627Z,1010.35
2018-05-12T04:18:10.763Z,1010.38
2018-05-12T04:18:36.911Z,1010.32
2018-05-12T04:19:03.050Z,1010.38
2018-05-12T04:19:29.188Z,1010.34
2018-05-12T04:19:55.319Z,1010.34
2018-05-12T04:20:21.458Z,1010.38
2018-05-12T04:20:47.605Z,1010.37
2018-05-12T04:21:13.746Z,1010.36
2018-05-12T04:21:39.907Z,1010.36
2018-05-12T04:22:06.046Z,1010.34
2018-05-12T04:22:32.186Z,1010.35
2018-05-12T04:22:58.355Z,1010.38
2018-05-12T04:23:24.510Z,1010.38
2018-05-12T04:23:50.677Z,1010.37
2018-05-12T04:24:16.818Z,1010.34
2018-05-12T04:24:42.968Z,1010.34
2018-05-12T04:25:09.133Z,1010.36
2018-05-12T04:25:35.302Z,1010.34
2018-05-12T04:26:01.441Z,1010.37
2018-05-12T04:26:27.576Z,1010.37
2018-05-12T04:26:53.738Z,1010.42
2018-05-12T04:27:19.902Z,1010.39
2018-05-12T04:27:46.047Z,1010.41
2018-05-12T04:28:12.192Z,1010.41
2018-05-12T04:28:38.322Z,1010.37
2018-05-12T04:29:04.455Z,1010.39
2018-05-12T04:29:30.603Z,1010.4
2018-05-12T04:29:56.737Z,1010.39
2018-05-12T04:30:22.879Z,1010.42
2018-05-12T04:30:49.044Z,1010.41
2018-05-12T04:31:15.181Z,1010.41
2018-05-12T04:31:41.317Z,1010.44
2018-05-12T04:32:07.461Z,1010.4
2018-05-12T04:32:33.639Z,1010.37
2018-05-12T04:32:59.783Z,1010.39
2018-05-12T04:33:25.943Z,1010.42
2018-05-12T04:33:52.107Z,1010.4
2018-05-12T04:34:18.249Z,1010.4
2018-05-12T04:34:44.386Z,1010.43
2018-05-12T04:35:10.525Z,1010.42
2018-05-12T04:35:36.689Z,1010.41
2018-05-12T04:36:02.846Z,1010.39
2018-05-12T04:36:28.982Z,1010.43
2018-05-12T04:36:55.128Z,1010.39
2018-05-12T04:37:21.288Z,1010.38
2018-05-12T04:37:47.442Z,1010.38
2018-05-12T04:38:13.569Z,1010.39
2018-05-12T04:38:39.707Z,1010.37
2018-05-12T04:39:05.869Z,1010.39
2018-05-12T04:39:32.006Z,1010.4
2018-05-12T04:39:58.166Z,1010.4
2018-05-12T04:40:24.304Z,1010.4
2018-05-12T04:40:50.462Z,1010.37
2018-05-12T04:41:16.623Z,1010.4
2018-05-12T04:41:42.767Z,1010.4
2018-05-12T04:42:08.914Z,1010.38
2018-05-12T04:42:35.052Z,1010.4
2018-05-12T04:43:01.213Z,1010.38
2018-05-12T04:43:27.375Z,1010.4
2018-05-12T04:43:53.515Z,1010.4
2018-05-12T04:44:19.661Z,1010.4
2018-05-12T04:44:45.793Z,1010.45
2018-05-12T04:45:11.954Z,1010.42
2018-05-12T04:45:38.100Z,1010.4
2018-05-12T04:46:04.235Z,1010.44
2018-05-12T04:46:30.376Z,1010.43
2018-05-12T04:46:56.508Z,1010.42
2018-05-12T04:47:22.675Z,1010.41
2018-05-12T04:47:48.837Z,1010.39
2018-05-12T04:48:15.006Z,1010.38
2018-05-12T04:48:41.188Z,1010.38
2018-05-12T04:49:07.296Z,1010.38
2018-05-12T04:49:33.473Z,1010.4
2018-05-12T04:49:59.591Z,1010.4
2018-05-12T04:50:25.781Z,1010.38
2018-05-12T04:50:51.948Z,1010.38
2018-05-12T04:51:18.087Z,1010.33
2018-05-12T04:51:44.224Z,1010.37
2018-05-12T04:52:10.365Z,1010.39
2018-05-12T04:52:36.509Z,1010.36
2018-05-12T04:53:02.697Z,1010.38
2018-05-12T04:53:28.856Z,1010.38
2018-05-12T04:53:55.025Z,1010.39
2018-05-12T04:54:21.189Z,1010.37
2018-05-12T04:54:47.332Z,1010.32
2018-05-12T04:55:13.517Z,1010.36
2018-05-12T04:55:39.655Z,1010.34
2018-05-12T04:56:05.797Z,1010.36
2018-05-12T04:56:31.930Z,1010.34
2018-05-12T04:56:58.074Z,1010.37
2018-05-12T04:57:24.212Z,1010.38
2018-05-12T04:57:50.353Z,1010.37
2018-05-12T04:58:16.509Z,1010.37
2018-05-12T04:58:42.677Z,1010.39
2018-05-12T04:59:08.823Z,1010.4
2018-05-12T04:59:34.959Z,1010.37
2018-05-12T05:00:01.105Z,1010.41
2018-05-12T05:00:27.272Z,1010.4
2018-05-12T05:00:53.433Z,1010.41
2018-05-12T05:01:19.573Z,1010.41
2018-05-12T05:01:45.703Z,1010.38
2018-05-12T05:02:11.850Z,1010.43
2018-05-12T05:02:38.008Z,1010.4
2018-05-12T05:03:04.159Z,1010.42
2018-05-12T05:03:30.284Z,1010.42
2018-05-12T05:03:56.474Z,1010.4
2018-05-12T05:04:22.632Z,1010.4
2018-05-12T05:04:48.767Z,1010.4
2018-05-12T05:05:14.910Z,1010.4
2018-05-12T05:05:41.046Z,1010.42
2018-05-12T05:06:07.184Z,1010.43
2018-05-12T05:06:33.324Z,1010.43
2018-05-12T05:06:59.484Z,1010.38
2018-05-12T05:07:25.625Z,1010.41
2018-05-12T05:07:51.763Z,1010.39
2018-05-12T05:08:17.985Z,1010.43
2018-05-12T05:08:44.050Z,1010.43
2018-05-12T05:09:10.185Z,1010.42
2018-05-12T05:09:36.337Z,1010.4
2018-05-12T05:10:02.473Z,1010.4
2018-05-12T05:10:28.609Z,1010.4
2018-05-12T05:10:54.753Z,1010.4
2018-05-12T05:11:20.887Z,1010.43
2018-05-12T05:11:47.020Z,1010.39
2018-05-12T05:12:13.188Z,1010.4
2018-05-12T05:12:39.327Z,1010.37
2018-05-12T05:13:05.521Z,1010.42
2018-05-12T05:13:31.686Z,1010.42
2018-05-12T05:13:57.843Z,1010.39
2018-05-12T05:14:23.992Z,1010.41
2018-05-12T05:14:50.131Z,1010.4
2018-05-12T05:15:16.320Z,1010.42
2018-05-12T05:15:42.427Z,1010.4
2018-05-12T05:16:08.574Z,1010.41
2018-05-12T05:16:34.710Z,1010.41
2018-05-12T05:17:00.844Z,1010.42
2018-05-12T05:17:27.005Z,1010.42